UZB778 UCFM-UZTT
Flight info
| Callsign | UZB778 |
|---|---|
| Flight time | 0h 58m |
| Altitude | 36000 |
| Route | GASTA1 GASTA M34 RUDEK L143 TISIB TISIB2W |
| Aircraft | A320/M-SDE3FGHIRWY/LB1 |
Departure
| Time | 2026-04-25 18:22 |
|---|---|
| Airport | Manas International Airport (UCFM) |
Arrival
| Time | 2026-04-25 19:20 |
|---|---|
| Airport | Tashkent International Airport (UZTT) |
| Time | Latitude | Longitude | Altitude | Speed | Heading |
|---|---|---|---|---|---|
| 2026-04-25 17:52 | 43.05495 | 74.46961 | 2098 ft | 0 kts | 170° |
| 2026-04-25 18:08 | 43.05500 | 74.46960 | 2098 ft | 2 kts | 170° |
| 2026-04-25 18:08 | 43.05514 | 74.46957 | 2098 ft | 2 kts | 170° |
| 2026-04-25 18:08 | 43.05529 | 74.46953 | 2098 ft | 2 kts | 170° |
| 2026-04-25 18:08 | 43.05545 | 74.46950 | 2098 ft | 2 kts | 172° |
| 2026-04-25 18:09 | 43.05560 | 74.46948 | 2098 ft | 2 kts | 195° |
| 2026-04-25 18:09 | 43.05574 | 74.46957 | 2098 ft | 2 kts | 220° |
| 2026-04-25 18:09 | 43.05584 | 74.46973 | 2098 ft | 2 kts | 247° |
| 2026-04-25 18:09 | 43.05585 | 74.46980 | 2098 ft | 2 kts | 251° |
| 2026-04-25 18:10 | 43.05591 | 74.47008 | 2098 ft | 2 kts | 263° |
| 2026-04-25 18:10 | 43.05592 | 74.47020 | 2098 ft | 0 kts | 260° |
| 2026-04-25 18:15 | 43.05591 | 74.47015 | 2098 ft | 0 kts | 260° |
| 2026-04-25 18:15 | 43.05590 | 74.47004 | 2098 ft | 1 kts | 260° |
| 2026-04-25 18:15 | 43.05587 | 74.46983 | 2098 ft | 2 kts | 261° |
| 2026-04-25 18:15 | 43.05583 | 74.46944 | 2098 ft | 4 kts | 260° |
| 2026-04-25 18:16 | 43.05576 | 74.46890 | 2098 ft | 6 kts | 260° |
| 2026-04-25 18:16 | 43.05568 | 74.46820 | 2098 ft | 8 kts | 259° |
| 2026-04-25 18:16 | 43.05545 | 74.46636 | 2098 ft | 10 kts | 259° |
| 2026-04-25 18:17 | 43.05555 | 74.46536 | 2098 ft | 11 kts | 323° |
| 2026-04-25 18:17 | 43.05641 | 74.46505 | 2098 ft | 13 kts | 349° |
| 2026-04-25 18:17 | 43.05736 | 74.46465 | 2098 ft | 15 kts | 310° |
| 2026-04-25 18:17 | 43.05733 | 74.46318 | 2098 ft | 16 kts | 259° |
| 2026-04-25 18:18 | 43.05711 | 74.46146 | 2098 ft | 18 kts | 259° |
| 2026-04-25 18:18 | 43.05686 | 74.45953 | 2098 ft | 19 kts | 259° |
| 2026-04-25 18:18 | 43.05661 | 74.45764 | 2098 ft | 17 kts | 259° |
| 2026-04-25 18:18 | 43.05637 | 74.45577 | 2098 ft | 18 kts | 259° |
| 2026-04-25 18:19 | 43.05616 | 74.45410 | 2098 ft | 13 kts | 262° |
| 2026-04-25 18:19 | 43.05636 | 74.45296 | 2098 ft | 12 kts | 313° |
| 2026-04-25 18:19 | 43.05698 | 74.45257 | 2098 ft | 5 kts | 350° |
| 2026-04-25 18:19 | 43.05705 | 74.45255 | 2098 ft | 1 kts | 350° |
| 2026-04-25 18:20 | 43.05720 | 74.45252 | 2098 ft | 2 kts | 351° |
| 2026-04-25 18:20 | 43.05743 | 74.45249 | 2098 ft | 3 kts | 358° |
| 2026-04-25 18:20 | 43.05774 | 74.45252 | 2098 ft | 4 kts | 6° |
| 2026-04-25 18:20 | 43.05803 | 74.45274 | 2098 ft | 5 kts | 54° |
| 2026-04-25 18:21 | 43.05814 | 74.45328 | 2098 ft | 6 kts | 79° |
| 2026-04-25 18:21 | 43.05844 | 74.45564 | 2098 ft | 63 kts | 79° |
| 2026-04-25 18:21 | 43.05970 | 74.46529 | 2098 ft | 141 kts | 80° |
| 2026-04-25 18:21 | 43.06175 | 74.48033 | 2479 ft | 171 kts | 81° |
| 2026-04-25 18:22 | 43.06399 | 74.49646 | 3243 ft | 180 kts | 78° |
| 2026-04-25 18:22 | 43.06519 | 74.50185 | 3579 ft | 180 kts | 68° |
| 2026-04-25 18:22 | 43.08228 | 74.51543 | 4472 ft | 199 kts | 349° |
| 2026-04-25 18:22 | 43.09445 | 74.50571 | 4862 ft | 213 kts | 307° |
| 2026-04-25 18:23 | 43.10059 | 74.48682 | 5221 ft | 231 kts | 281° |
| 2026-04-25 18:23 | 43.10425 | 74.46438 | 5681 ft | 250 kts | 275° |
| 2026-04-25 18:23 | 43.10292 | 74.44035 | 6145 ft | 264 kts | 248° |
| 2026-04-25 18:23 | 43.09496 | 74.41732 | 6843 ft | 272 kts | 239° |
| 2026-04-25 18:24 | 43.08565 | 74.39505 | 7694 ft | 274 kts | 238° |
| 2026-04-25 18:24 | 43.07624 | 74.37230 | 8548 ft | 276 kts | 239° |
| 2026-04-25 18:24 | 43.06706 | 74.34933 | 9380 ft | 278 kts | 240° |
| 2026-04-25 18:24 | 43.05809 | 74.32632 | 10186 ft | 280 kts | 241° |
| 2026-04-25 18:25 | 43.04894 | 74.30242 | 10835 ft | 289 kts | 242° |
| 2026-04-25 18:25 | 43.03940 | 74.27731 | 11208 ft | 306 kts | 242° |
| 2026-04-25 18:25 | 43.02948 | 74.25105 | 11771 ft | 315 kts | 242° |
| 2026-04-25 18:25 | 43.01951 | 74.22457 | 12501 ft | 318 kts | 242° |
| 2026-04-25 18:26 | 43.00934 | 74.19752 | 13213 ft | 321 kts | 242° |
| 2026-04-25 18:26 | 42.99912 | 74.17033 | 13891 ft | 324 kts | 242° |
| 2026-04-25 18:26 | 42.98893 | 74.14326 | 14543 ft | 328 kts | 242° |
| 2026-04-25 18:26 | 42.97839 | 74.11532 | 15193 ft | 331 kts | 242° |
| 2026-04-25 18:27 | 42.96794 | 74.08762 | 15815 ft | 334 kts | 242° |
| 2026-04-25 18:27 | 42.95723 | 74.05930 | 16431 ft | 337 kts | 242° |
| 2026-04-25 18:27 | 42.94644 | 74.03078 | 17026 ft | 340 kts | 242° |
| 2026-04-25 18:27 | 42.93640 | 74.00174 | 17605 ft | 343 kts | 246° |
| 2026-04-25 18:28 | 42.92770 | 73.97156 | 18170 ft | 346 kts | 250° |
| 2026-04-25 18:28 | 42.91975 | 73.94017 | 18730 ft | 349 kts | 250° |
| 2026-04-25 18:28 | 42.91195 | 73.90895 | 19272 ft | 352 kts | 250° |
| 2026-04-25 18:29 | 42.89601 | 73.84533 | 20326 ft | 357 kts | 250° |
| 2026-04-25 18:29 | 42.88803 | 73.81364 | 20832 ft | 359 kts | 250° |
| 2026-04-25 18:30 | 42.86339 | 73.71613 | 22316 ft | 366 kts | 250° |
| 2026-04-25 18:30 | 42.85508 | 73.68340 | 22795 ft | 369 kts | 250° |
| 2026-04-25 18:30 | 42.84670 | 73.65042 | 23260 ft | 371 kts | 250° |
| 2026-04-25 18:30 | 42.83751 | 73.61729 | 23706 ft | 373 kts | 243° |
| 2026-04-25 18:31 | 42.82246 | 73.58881 | 24108 ft | 375 kts | 225° |
| 2026-04-25 18:31 | 42.80139 | 73.56836 | 24515 ft | 379 kts | 207° |
| 2026-04-25 18:31 | 42.77615 | 73.55796 | 24881 ft | 386 kts | 189° |
| 2026-04-25 18:31 | 42.74909 | 73.55869 | 25268 ft | 392 kts | 176° |
| 2026-04-25 18:32 | 42.72239 | 73.56333 | 25668 ft | 394 kts | 175° |
| 2026-04-25 18:32 | 42.69506 | 73.56838 | 26030 ft | 397 kts | 175° |
| 2026-04-25 18:32 | 42.66756 | 73.57339 | 26394 ft | 400 kts | 175° |
| 2026-04-25 18:32 | 42.64005 | 73.57832 | 26766 ft | 402 kts | 175° |
| 2026-04-25 18:33 | 42.61256 | 73.58316 | 27133 ft | 404 kts | 176° |
| 2026-04-25 18:33 | 42.58450 | 73.58806 | 27477 ft | 406 kts | 176° |
| 2026-04-25 18:33 | 42.55669 | 73.59289 | 27807 ft | 408 kts | 176° |
| 2026-04-25 18:33 | 42.52879 | 73.59772 | 28123 ft | 410 kts | 176° |
| 2026-04-25 18:34 | 42.50032 | 73.60265 | 28439 ft | 413 kts | 176° |
| 2026-04-25 18:34 | 42.47192 | 73.60693 | 28743 ft | 413 kts | 181° |
| 2026-04-25 18:34 | 42.44362 | 73.60407 | 29015 ft | 410 kts | 195° |
| 2026-04-25 18:34 | 42.41658 | 73.59206 | 29304 ft | 407 kts | 208° |
| 2026-04-25 18:35 | 42.39274 | 73.57207 | 29570 ft | 405 kts | 221° |
| 2026-04-25 18:35 | 42.37297 | 73.54507 | 29837 ft | 405 kts | 234° |
| 2026-04-25 18:35 | 42.35814 | 73.51275 | 30114 ft | 405 kts | 243° |
| 2026-04-25 18:35 | 42.34542 | 73.47907 | 30424 ft | 405 kts | 244° |
| 2026-04-25 18:36 | 42.33277 | 73.44481 | 30699 ft | 407 kts | 244° |
| 2026-04-25 18:36 | 42.32019 | 73.41077 | 30953 ft | 408 kts | 244° |
| 2026-04-25 18:36 | 42.30736 | 73.37627 | 31202 ft | 410 kts | 244° |
| 2026-04-25 18:36 | 42.29454 | 73.34189 | 31448 ft | 411 kts | 244° |
| 2026-04-25 18:37 | 42.28168 | 73.30756 | 31694 ft | 413 kts | 244° |
| 2026-04-25 18:37 | 42.26878 | 73.27318 | 31935 ft | 414 kts | 244° |
| 2026-04-25 18:37 | 42.25578 | 73.23857 | 32118 ft | 416 kts | 244° |
| 2026-04-25 18:37 | 42.24255 | 73.20342 | 32127 ft | 416 kts | 244° |
| 2026-04-25 18:38 | 42.21646 | 73.13425 | 32132 ft | 416 kts | 244° |
| 2026-04-25 18:38 | 42.19027 | 73.06490 | 32133 ft | 416 kts | 244° |
| 2026-04-25 18:39 | 42.16405 | 72.99548 | 32130 ft | 416 kts | 244° |
| 2026-04-25 18:39 | 42.13786 | 72.92628 | 32125 ft | 416 kts | 244° |
| 2026-04-25 18:40 | 42.11146 | 72.85672 | 32119 ft | 417 kts | 244° |
| 2026-04-25 18:40 | 42.08511 | 72.78745 | 32115 ft | 417 kts | 244° |
| 2026-04-25 18:41 | 42.05877 | 72.71840 | 32109 ft | 417 kts | 244° |
| 2026-04-25 18:41 | 42.03215 | 72.64877 | 32110 ft | 417 kts | 244° |
| 2026-04-25 18:42 | 42.01461 | 72.60297 | 32110 ft | 417 kts | 244° |
| 2026-04-25 18:42 | 41.97913 | 72.51058 | 32110 ft | 417 kts | 244° |
| 2026-04-25 18:43 | 41.95259 | 72.44165 | 32109 ft | 417 kts | 244° |
| 2026-04-25 18:43 | 41.92585 | 72.37238 | 32111 ft | 417 kts | 244° |
| 2026-04-25 18:44 | 41.89912 | 72.30332 | 32110 ft | 417 kts | 243° |
| 2026-04-25 18:44 | 41.87240 | 72.23440 | 32110 ft | 417 kts | 243° |
| 2026-04-25 18:45 | 41.84572 | 72.16578 | 32110 ft | 417 kts | 243° |
| 2026-04-25 18:45 | 41.81897 | 72.09712 | 32109 ft | 417 kts | 243° |
| 2026-04-25 18:46 | 41.79208 | 72.02831 | 32108 ft | 417 kts | 243° |
| 2026-04-25 18:46 | 41.76531 | 71.95991 | 32109 ft | 417 kts | 243° |
| 2026-04-25 18:47 | 41.73835 | 71.89123 | 32110 ft | 417 kts | 243° |
| 2026-04-25 18:47 | 41.71130 | 71.82243 | 32109 ft | 417 kts | 244° |
| 2026-04-25 18:48 | 41.68600 | 71.75330 | 32109 ft | 417 kts | 245° |
| 2026-04-25 18:48 | 41.66090 | 71.68348 | 32109 ft | 417 kts | 245° |
| 2026-04-25 18:49 | 41.63567 | 71.61385 | 32110 ft | 417 kts | 245° |
| 2026-04-25 18:49 | 41.61039 | 71.54437 | 32109 ft | 417 kts | 245° |
| 2026-04-25 18:50 | 41.58516 | 71.47526 | 32108 ft | 417 kts | 245° |
| 2026-04-25 18:50 | 41.55976 | 71.40590 | 32108 ft | 417 kts | 245° |
| 2026-04-25 18:51 | 41.54268 | 71.35932 | 32109 ft | 417 kts | 245° |
| 2026-04-25 18:51 | 41.50878 | 71.26716 | 32109 ft | 417 kts | 245° |
| 2026-04-25 18:52 | 41.48313 | 71.19800 | 32110 ft | 417 kts | 244° |
| 2026-04-25 18:52 | 41.45598 | 71.12955 | 32109 ft | 417 kts | 243° |
| 2026-04-25 18:53 | 41.42877 | 71.06150 | 32109 ft | 417 kts | 243° |
| 2026-04-25 18:53 | 41.40170 | 70.99365 | 32110 ft | 416 kts | 243° |
| 2026-04-25 18:54 | 41.36104 | 70.89198 | 32109 ft | 413 kts | 244° |
| 2026-04-25 18:55 | 41.33419 | 70.82497 | 32110 ft | 412 kts | 245° |
| 2026-04-25 18:55 | 41.30731 | 70.75790 | 32109 ft | 413 kts | 245° |
| 2026-04-25 18:56 | 41.28027 | 70.69050 | 32109 ft | 413 kts | 245° |
| 2026-04-25 18:56 | 41.25330 | 70.62351 | 32082 ft | 411 kts | 245° |
| 2026-04-25 18:56 | 41.23982 | 70.59008 | 31594 ft | 412 kts | 245° |
| 2026-04-25 18:57 | 41.22634 | 70.55664 | 30633 ft | 418 kts | 245° |
| 2026-04-25 18:57 | 41.21248 | 70.52228 | 29822 ft | 418 kts | 244° |
| 2026-04-25 18:57 | 41.19883 | 70.48855 | 29149 ft | 416 kts | 244° |
| 2026-04-25 18:57 | 41.19430 | 70.47738 | 28946 ft | 414 kts | 244° |
| 2026-04-25 18:58 | 41.17188 | 70.42218 | 28037 ft | 405 kts | 244° |
| 2026-04-25 18:58 | 41.14566 | 70.35771 | 27038 ft | 393 kts | 244° |
| 2026-04-25 18:58 | 41.13268 | 70.32587 | 26544 ft | 387 kts | 243° |
| 2026-04-25 18:59 | 41.10755 | 70.26425 | 25572 ft | 378 kts | 242° |
| 2026-04-25 18:59 | 41.08300 | 70.20403 | 25084 ft | 368 kts | 242° |
| 2026-04-25 19:00 | 41.05862 | 70.14430 | 25080 ft | 370 kts | 241° |
| 2026-04-25 19:00 | 41.04635 | 70.11429 | 25079 ft | 371 kts | 241° |
| 2026-04-25 19:01 | 41.02179 | 70.05436 | 25079 ft | 372 kts | 241° |
| 2026-04-25 19:01 | 41.00952 | 70.02444 | 24908 ft | 369 kts | 240° |
| 2026-04-25 19:01 | 40.99721 | 69.99442 | 24114 ft | 375 kts | 240° |
| 2026-04-25 19:01 | 40.98473 | 69.96402 | 23146 ft | 383 kts | 240° |
| 2026-04-25 19:02 | 40.95923 | 69.90206 | 21759 ft | 384 kts | 239° |
| 2026-04-25 19:02 | 40.94622 | 69.87056 | 21125 ft | 382 kts | 239° |
| 2026-04-25 19:02 | 40.93344 | 69.83963 | 20514 ft | 381 kts | 239° |
| 2026-04-25 19:03 | 40.91940 | 69.79717 | 19706 ft | 382 kts | 253° |
| 2026-04-25 19:03 | 40.91522 | 69.73941 | 18767 ft | 382 kts | 269° |
| 2026-04-25 19:03 | 40.91581 | 69.70447 | 18215 ft | 380 kts | 270° |
| 2026-04-25 19:04 | 40.91718 | 69.63525 | 17135 ft | 376 kts | 270° |
| 2026-04-25 19:04 | 40.91769 | 69.60092 | 16613 ft | 373 kts | 270° |
| 2026-04-25 19:05 | 40.91856 | 69.53305 | 15592 ft | 368 kts | 270° |
| 2026-04-25 19:05 | 40.91936 | 69.46591 | 14602 ft | 363 kts | 270° |
| 2026-04-25 19:05 | 40.91974 | 69.43282 | 14184 ft | 358 kts | 270° |
| 2026-04-25 19:06 | 40.92012 | 69.40002 | 13964 ft | 347 kts | 270° |
| 2026-04-25 19:06 | 40.92080 | 69.33725 | 13230 ft | 341 kts | 270° |
| 2026-04-25 19:06 | 40.92112 | 69.30560 | 12727 ft | 340 kts | 270° |
| 2026-04-25 19:07 | 40.92174 | 69.24396 | 12078 ft | 326 kts | 270° |
| 2026-04-25 19:07 | 40.92202 | 69.21463 | 11776 ft | 320 kts | 270° |
| 2026-04-25 19:08 | 40.92255 | 69.15617 | 10756 ft | 322 kts | 270° |
| 2026-04-25 19:08 | 40.92281 | 69.12676 | 10084 ft | 313 kts | 270° |
| 2026-04-25 19:09 | 40.92352 | 69.04411 | 8045 ft | 293 kts | 270° |
| 2026-04-25 19:09 | 40.92363 | 69.03495 | 7804 ft | 292 kts | 272° |
| 2026-04-25 19:09 | 40.95021 | 68.97955 | 5948 ft | 279 kts | 338° |
| 2026-04-25 19:10 | 40.96877 | 68.97517 | 5562 ft | 263 kts | 360° |
| 2026-04-25 19:10 | 40.98644 | 68.97591 | 5238 ft | 250 kts | 2° |
| 2026-04-25 19:10 | 41.00369 | 68.97710 | 4711 ft | 246 kts | 2° |
| 2026-04-25 19:10 | 41.02059 | 68.97824 | 4151 ft | 244 kts | 2° |
| 2026-04-25 19:11 | 41.03748 | 68.97929 | 3821 ft | 242 kts | 2° |
| 2026-04-25 19:11 | 41.05431 | 68.98028 | 3781 ft | 243 kts | 2° |
| 2026-04-25 19:11 | 41.07065 | 68.98120 | 3758 ft | 228 kts | 2° |
| 2026-04-25 19:11 | 41.08597 | 68.98205 | 3754 ft | 213 kts | 2° |
| 2026-04-25 19:12 | 41.10048 | 68.98283 | 3766 ft | 209 kts | 2° |
| 2026-04-25 19:12 | 41.11518 | 68.98360 | 3773 ft | 209 kts | 1° |
| 2026-04-25 19:12 | 41.12970 | 68.98438 | 3784 ft | 208 kts | 1° |
| 2026-04-25 19:12 | 41.14423 | 68.98515 | 3880 ft | 210 kts | 1° |
| 2026-04-25 19:13 | 41.15866 | 68.98592 | 3818 ft | 209 kts | 2° |
| 2026-04-25 19:13 | 41.17333 | 68.98669 | 3793 ft | 208 kts | 2° |
| 2026-04-25 19:13 | 41.18718 | 68.98743 | 3763 ft | 192 kts | 1° |
| 2026-04-25 19:13 | 41.19992 | 68.98812 | 3750 ft | 178 kts | 1° |
| 2026-04-25 19:14 | 41.21243 | 68.98882 | 3766 ft | 178 kts | 4° |
| 2026-04-25 19:14 | 41.21640 | 68.98951 | 3764 ft | 178 kts | 13° |
| 2026-04-25 19:14 | 41.22916 | 69.00927 | 3797 ft | 182 kts | 79° |
| 2026-04-25 19:14 | 41.23041 | 69.02589 | 3642 ft | 179 kts | 85° |
| 2026-04-25 19:15 | 41.23125 | 69.04211 | 3402 ft | 172 kts | 85° |
| 2026-04-25 19:15 | 41.23237 | 69.05763 | 3174 ft | 165 kts | 83° |
| 2026-04-25 19:15 | 41.23370 | 69.07238 | 2964 ft | 154 kts | 82° |
| 2026-04-25 19:15 | 41.23510 | 69.08605 | 2780 ft | 143 kts | 81° |
| 2026-04-25 19:16 | 41.23651 | 69.09908 | 2789 ft | 144 kts | 81° |
| 2026-04-25 19:16 | 41.23797 | 69.11237 | 2781 ft | 144 kts | 81° |
| 2026-04-25 19:16 | 41.23941 | 69.12548 | 2779 ft | 144 kts | 81° |
| 2026-04-25 19:16 | 41.24088 | 69.13876 | 2778 ft | 144 kts | 81° |
| 2026-04-25 19:17 | 41.24233 | 69.15190 | 2777 ft | 144 kts | 81° |
| 2026-04-25 19:17 | 41.24377 | 69.16502 | 2776 ft | 144 kts | 81° |
| 2026-04-25 19:17 | 41.24523 | 69.17837 | 2635 ft | 144 kts | 81° |
| 2026-04-25 19:17 | 41.24670 | 69.19173 | 2447 ft | 143 kts | 81° |
| 2026-04-25 19:18 | 41.24813 | 69.20484 | 2262 ft | 143 kts | 81° |
| 2026-04-25 19:18 | 41.24954 | 69.21774 | 2072 ft | 142 kts | 81° |
| 2026-04-25 19:18 | 41.25091 | 69.23089 | 1886 ft | 142 kts | 81° |
| 2026-04-25 19:18 | 41.25240 | 69.24382 | 1660 ft | 141 kts | 81° |
| 2026-04-25 19:19 | 41.25386 | 69.25671 | 1533 ft | 141 kts | 81° |
| 2026-04-25 19:19 | 41.25527 | 69.26970 | 1426 ft | 136 kts | 82° |
| 2026-04-25 19:19 | 41.25647 | 69.28040 | 1425 ft | 90 kts | 81° |
| 2026-04-25 19:19 | 41.25676 | 69.28293 | 1425 ft | 73 kts | 81° |
| 2026-04-25 19:20 | 41.25751 | 69.28864 | 1425 ft | 13 kts | 47° |
| 2026-04-25 19:20 | 41.25808 | 69.28904 | 1425 ft | 7 kts | 24° |
| 2026-04-25 19:20 | 41.25837 | 69.28920 | 1425 ft | 0 kts | 22° |
| 2026-04-25 19:20 | 41.25837 | 69.28921 | 1425 ft | 0 kts | 22° |
| 2026-04-25 19:21 | 41.25862 | 69.28934 | 1425 ft | 5 kts | 22° |
| 2026-04-25 19:21 | 41.25907 | 69.28949 | 1425 ft | 8 kts | 2° |
| 2026-04-25 19:22 | 41.25973 | 69.28927 | 1425 ft | 11 kts | 334° |
| 2026-04-25 19:22 | 41.26044 | 69.28854 | 1425 ft | 14 kts | 317° |
| 2026-04-25 19:22 | 41.26119 | 69.28761 | 1425 ft | 4 kts | 319° |
| 2026-04-25 19:23 | 41.26146 | 69.28726 | 1425 ft | 6 kts | 315° |
| 2026-04-25 19:23 | 41.26184 | 69.28606 | 1425 ft | 8 kts | 274° |
| 2026-04-25 19:23 | 41.26188 | 69.28522 | 1425 ft | 9 kts | 274° |
| 2026-04-25 19:24 | 41.26192 | 69.28426 | 1425 ft | 10 kts | 271° |
| 2026-04-25 19:24 | 41.26184 | 69.28320 | 1425 ft | 12 kts | 261° |
| 2026-04-25 19:24 | 41.26158 | 69.28085 | 1425 ft | 13 kts | 261° |
| 2026-04-25 19:25 | 41.26129 | 69.27821 | 1425 ft | 15 kts | 262° |
| 2026-04-25 19:25 | 41.26114 | 69.27681 | 1425 ft | 15 kts | 262° |
| 2026-04-25 19:25 | 41.26098 | 69.27538 | 1425 ft | 16 kts | 261° |
| 2026-04-25 19:26 | 41.26083 | 69.27401 | 1425 ft | 14 kts | 262° |
| 2026-04-25 19:26 | 41.26067 | 69.27281 | 1425 ft | 10 kts | 256° |
| 2026-04-25 19:26 | 41.26099 | 69.27198 | 1425 ft | 11 kts | 317° |
| 2026-04-25 19:26 | 41.26161 | 69.27125 | 1425 ft | 12 kts | 318° |
| 2026-04-25 19:27 | 41.26222 | 69.27062 | 1425 ft | 9 kts | 319° |
| 2026-04-25 19:27 | 41.26237 | 69.27044 | 1425 ft | 8 kts | 316° |
| 2026-04-25 19:27 | 41.26270 | 69.26934 | 1425 ft | 7 kts | 264° |
| 2026-04-25 19:27 | 41.26267 | 69.26899 | 1425 ft | 1 kts | 263° |
| 2026-04-25 19:28 | 41.26267 | 69.26898 | 1425 ft | 0 kts | 264° |